createdAt,value
2022-11-26T00:29:55.845Z,1016.89
2022-11-26T00:30:36.318Z,1016.9
2022-11-26T00:31:16.931Z,1016.94
2022-11-26T00:31:57.394Z,1016.96
2022-11-26T00:32:37.825Z,1016.95
2022-11-26T00:33:18.318Z,1016.95
2022-11-26T00:33:58.843Z,1016.94
2022-11-26T00:34:39.585Z,1016.93
2022-11-26T00:35:19.891Z,1016.95
2022-11-26T00:36:00.354Z,1016.94
2022-11-26T00:36:40.828Z,1016.9
2022-11-26T00:37:21.325Z,1016.92
2022-11-26T00:38:01.826Z,1016.92
2022-11-26T00:38:42.309Z,1016.94
2022-11-26T00:39:22.841Z,1016.92
2022-11-26T00:40:03.329Z,1016.95
2022-11-26T00:40:43.874Z,1016.94
2022-11-26T00:41:24.372Z,1016.96
2022-11-26T00:42:04.892Z,1016.95
2022-11-26T00:42:45.411Z,1017
2022-11-26T00:43:25.945Z,1017.02
2022-11-26T00:44:06.494Z,1017.07
2022-11-26T00:44:47.002Z,1017.02
2022-11-26T00:45:27.572Z,1017.04
2022-11-26T00:46:08.045Z,1017.03
2022-11-26T00:46:48.555Z,1017.08
2022-11-26T00:47:28.978Z,1017.02
2022-11-26T00:48:09.438Z,1017.07
2022-11-26T00:48:49.924Z,1017.1
2022-11-26T00:49:30.439Z,1017.1
2022-11-26T00:50:10.896Z,1017.15
2022-11-26T00:50:51.391Z,1017.13
2022-11-26T00:51:31.934Z,1017.15
2022-11-26T00:52:12.399Z,1017.13
2022-11-26T00:52:52.916Z,1017.14
2022-11-26T00:53:33.409Z,1017.13
2022-11-26T00:54:13.898Z,1017.17
2022-11-26T00:54:54.409Z,1017.14
2022-11-26T00:55:34.964Z,1017.17
2022-11-26T00:56:15.450Z,1017.19
2022-11-26T00:56:55.967Z,1017.2
2022-11-26T00:57:36.480Z,1017.21
2022-11-26T00:58:16.969Z,1017.24
2022-11-26T00:58:57.549Z,1017.27
2022-11-26T01:00:18.553Z,1017.26
2022-11-26T01:00:59.153Z,1017.29
2022-11-26T01:01:39.581Z,1017.33
2022-11-26T01:02:20.067Z,1017.3
2022-11-26T01:03:00.565Z,1017.32
2022-11-26T01:03:41.094Z,1017.34
2022-11-26T01:04:21.611Z,1017.31
2022-11-26T01:05:02.100Z,1017.34
2022-11-26T01:05:42.573Z,1017.32
2022-11-26T01:06:23.073Z,1017.35
2022-11-26T01:07:03.586Z,1017.35
2022-11-26T01:07:44.194Z,1017.39
2022-11-26T01:08:24.562Z,1017.4
2022-11-26T01:09:05.055Z,1017.4
2022-11-26T01:09:45.559Z,1017.37
2022-11-26T01:10:26.037Z,1017.4
2022-11-26T01:11:06.562Z,1017.41
2022-11-26T01:11:49.863Z,1017.41
2022-11-26T01:12:27.595Z,1017.46
2022-11-26T01:13:08.080Z,1017.43
2022-11-26T01:13:48.584Z,1017.43
2022-11-26T01:14:29.109Z,1017.42
2022-11-26T01:15:09.636Z,1017.45
2022-11-26T01:15:50.158Z,1017.43
2022-11-26T01:16:30.735Z,1017.45
2022-11-26T01:17:11.166Z,1017.46
2022-11-26T01:17:51.645Z,1017.44
2022-11-26T01:18:32.121Z,1017.45
2022-11-26T01:19:13.006Z,1017.44
2022-11-26T01:19:53.425Z,1017.43
2022-11-26T01:20:33.938Z,1017.46
2022-11-26T01:21:14.446Z,1017.43
2022-11-26T01:21:54.895Z,1017.46
2022-11-26T01:22:35.402Z,1017.47
2022-11-26T01:23:15.926Z,1017.45
2022-11-26T01:23:56.447Z,1017.48
2022-11-26T01:24:37.172Z,1017.46
2022-11-26T01:25:17.434Z,1017.51
2022-11-26T01:25:59.660Z,1017.51
2022-11-26T01:26:38.458Z,1017.55
2022-11-26T01:27:18.868Z,1017.54
2022-11-26T01:27:59.371Z,1017.54
2022-11-26T01:28:39.838Z,1017.55
2022-11-26T01:29:20.335Z,1017.52
2022-11-26T01:30:00.798Z,1017.52
2022-11-26T01:30:41.290Z,1017.54
2022-11-26T01:31:21.834Z,1017.54
2022-11-26T01:32:02.446Z,1017.56
2022-11-26T01:32:42.816Z,1017.55
2022-11-26T01:33:23.351Z,1017.58
2022-11-26T01:34:03.843Z,1017.53
2022-11-26T01:34:44.352Z,1017.53
2022-11-26T01:35:24.825Z,1017.53
2022-11-26T01:36:05.337Z,1017.5
2022-11-26T01:36:45.816Z,1017.49
2022-11-26T01:37:26.342Z,1017.53
2022-11-26T01:38:06.877Z,1017.47
2022-11-26T01:38:47.486Z,1017.51
2022-11-26T01:39:28.009Z,1017.5
2022-11-26T01:40:08.552Z,1017.46
2022-11-26T01:40:49.038Z,1017.5
2022-11-26T01:41:29.563Z,1017.5
2022-11-26T01:42:10.058Z,1017.52
2022-11-26T01:42:50.553Z,1017.54
2022-11-26T01:43:31.058Z,1017.54
2022-11-26T01:44:11.611Z,1017.55
2022-11-26T01:44:52.113Z,1017.54
2022-11-26T01:45:32.714Z,1017.57
2022-11-26T01:46:13.176Z,1017.58
2022-11-26T01:46:53.609Z,1017.57
2022-11-26T01:47:34.129Z,1017.6
2022-11-26T01:48:14.606Z,1017.6
2022-11-26T01:48:55.126Z,1017.6
2022-11-26T01:49:35.625Z,1017.62
2022-11-26T01:50:16.151Z,1017.61
2022-11-26T01:50:56.694Z,1017.66
2022-11-26T01:51:37.197Z,1017.63
2022-11-26T01:52:17.643Z,1017.68
2022-11-26T01:52:58.167Z,1017.61
2022-11-26T01:53:38.650Z,1017.67
2022-11-26T01:54:19.246Z,1017.68
2022-11-26T01:54:59.720Z,1017.68
2022-11-26T01:55:40.254Z,1017.64
2022-11-26T01:56:20.705Z,1017.67
2022-11-26T01:57:01.196Z,1017.69
2022-11-26T01:57:41.728Z,1017.66
2022-11-26T01:58:22.222Z,1017.73
2022-11-26T01:59:02.701Z,1017.7
2022-11-26T01:59:43.178Z,1017.66
2022-11-26T02:00:23.668Z,1017.66
2022-11-26T02:01:04.256Z,1017.63
2022-11-26T02:01:44.752Z,1017.65
2022-11-26T02:02:25.249Z,1017.63
2022-11-26T02:03:05.771Z,1017.65
2022-11-26T02:03:46.222Z,1017.62
2022-11-26T02:04:26.764Z,1017.66
2022-11-26T02:05:07.231Z,1017.62
2022-11-26T02:05:47.727Z,1017.66
2022-11-26T02:06:28.220Z,1017.63
2022-11-26T02:07:08.775Z,1017.6
2022-11-26T02:07:49.318Z,1017.59
2022-11-26T02:08:29.688Z,1017.58
2022-11-26T02:09:10.182Z,1017.6
2022-11-26T02:09:50.685Z,1017.56
2022-11-26T02:10:31.185Z,1017.56
2022-11-26T02:11:11.721Z,1017.57
2022-11-26T02:11:52.162Z,1017.54
2022-11-26T02:12:32.630Z,1017.52
2022-11-26T02:13:13.138Z,1017.57
2022-11-26T02:13:53.589Z,1017.56
2022-11-26T02:14:34.158Z,1017.52
2022-11-26T02:15:14.652Z,1017.56
2022-11-26T02:15:55.732Z,1017.57
2022-11-26T02:16:36.268Z,1017.54
2022-11-26T02:17:16.683Z,1017.56
2022-11-26T02:17:57.180Z,1017.56
2022-11-26T02:18:37.688Z,1017.55
2022-11-26T02:19:18.156Z,1017.56
2022-11-26T02:19:58.831Z,1017.53
2022-11-26T02:20:39.281Z,1017.55
2022-11-26T02:21:19.771Z,1017.54
2022-11-26T02:22:00.233Z,1017.56
2022-11-26T02:22:40.731Z,1017.58
2022-11-26T02:23:21.832Z,1017.55
2022-11-26T02:24:02.280Z,1017.55
2022-11-26T02:24:42.818Z,1017.49
2022-11-26T02:25:23.307Z,1017.58
2022-11-26T02:26:03.813Z,1017.55
2022-11-26T02:26:44.313Z,1017.58
2022-11-26T02:27:24.844Z,1017.53
2022-11-26T02:28:05.344Z,1017.47
2022-11-26T02:28:45.798Z,1017.52
2022-11-26T02:29:26.310Z,1017.49
2022-11-26T02:30:06.826Z,1017.52
2022-11-26T02:30:47.323Z,1017.51
2022-11-26T02:31:27.861Z,1017.48
2022-11-26T02:32:08.376Z,1017.51
2022-11-26T02:32:48.794Z,1017.55
2022-11-26T02:33:29.312Z,1017.54
2022-11-26T02:34:09.794Z,1017.55
2022-11-26T02:34:50.318Z,1017.5
2022-11-26T02:35:30.725Z,1017.52
2022-11-26T02:36:11.230Z,1017.52
2022-11-26T02:36:51.728Z,1017.51
2022-11-26T02:37:32.203Z,1017.46
2022-11-26T02:38:12.711Z,1017.44
2022-11-26T02:38:53.214Z,1017.45
2022-11-26T02:39:33.717Z,1017.43
2022-11-26T02:40:14.226Z,1017.41
2022-11-26T02:40:54.721Z,1017.42
2022-11-26T02:41:35.223Z,1017.42
2022-11-26T02:42:15.729Z,1017.39
2022-11-26T02:42:56.198Z,1017.38
2022-11-26T02:43:36.670Z,1017.4
2022-11-26T02:44:17.147Z,1017.42
2022-11-26T02:44:57.646Z,1017.37
2022-11-26T02:45:38.154Z,1017.36
2022-11-26T02:46:59.083Z,1017.39
2022-11-26T02:47:39.632Z,1017.35
2022-11-26T02:48:20.154Z,1017.36
2022-11-26T02:49:00.606Z,1017.39
2022-11-26T02:49:41.150Z,1017.35
2022-11-26T02:50:21.609Z,1017.37
2022-11-26T02:51:02.073Z,1017.38
2022-11-26T02:51:42.576Z,1017.44
2022-11-26T02:52:23.058Z,1017.44
2022-11-26T02:53:03.555Z,1017.44
2022-11-26T02:54:24.510Z,1017.47
2022-11-26T02:55:04.997Z,1017.47
2022-11-26T02:55:45.487Z,1017.46
2022-11-26T02:56:26.025Z,1017.51
2022-11-26T02:57:06.527Z,1017.44
2022-11-26T02:57:47.025Z,1017.44
2022-11-26T02:58:27.491Z,1017.46
2022-11-26T02:59:07.940Z,1017.47
2022-11-26T02:59:48.428Z,1017.48
2022-11-26T03:00:28.974Z,1017.55
2022-11-26T03:01:09.443Z,1017.5
2022-11-26T03:01:49.937Z,1017.5
2022-11-26T03:02:30.418Z,1017.51
2022-11-26T03:03:10.913Z,1017.55
2022-11-26T03:03:51.481Z,1017.52
2022-11-26T03:04:31.926Z,1017.57
2022-11-26T03:05:12.485Z,1017.56
2022-11-26T03:05:52.935Z,1017.56
2022-11-26T03:06:33.417Z,1017.56
2022-11-26T03:07:13.928Z,1017.61
2022-11-26T03:07:54.485Z,1017.58
2022-11-26T03:08:34.897Z,1017.6
2022-11-26T03:09:15.421Z,1017.58
2022-11-26T03:09:55.932Z,1017.51
2022-11-26T03:10:36.411Z,1017.57
2022-11-26T03:11:17.006Z,1017.56
2022-11-26T03:11:57.950Z,1017.59
2022-11-26T03:12:38.380Z,1017.58
2022-11-26T03:13:18.845Z,1017.61
2022-11-26T03:14:39.962Z,1017.65
2022-11-26T03:15:20.315Z,1017.65
2022-11-26T03:16:01.694Z,1017.69
2022-11-26T03:16:42.142Z,1017.7
2022-11-26T03:17:22.619Z,1017.7
2022-11-26T03:18:03.065Z,1017.71
2022-11-26T03:18:43.567Z,1017.68
2022-11-26T03:19:24.044Z,1017.72
2022-11-26T03:20:04.515Z,1017.69
2022-11-26T03:20:45.008Z,1017.68
2022-11-26T03:22:05.935Z,1017.72
2022-11-26T03:22:46.428Z,1017.71
2022-11-26T03:23:26.921Z,1017.64
2022-11-26T03:24:07.474Z,1017.67
2022-11-26T03:24:47.987Z,1017.64
2022-11-26T03:25:28.462Z,1017.66
2022-11-26T03:26:08.971Z,1017.67
2022-11-26T03:26:49.480Z,1017.7
2022-11-26T03:27:29.986Z,1017.75
2022-11-26T03:28:10.470Z,1017.74
2022-11-26T03:28:50.969Z,1017.76
2022-11-26T03:29:31.449Z,1017.76
2022-11-26T03:30:11.932Z,1017.75
2022-11-26T03:30:52.455Z,1017.78
2022-11-26T03:31:32.995Z,1017.78
2022-11-26T03:32:13.498Z,1017.8
2022-11-26T03:32:54.003Z,1017.77
2022-11-26T03:33:34.507Z,1017.74
2022-11-26T03:34:14.996Z,1017.76
2022-11-26T03:34:55.460Z,1017.72
2022-11-26T03:35:35.954Z,1017.74
2022-11-26T03:36:16.455Z,1017.77
2022-11-26T03:36:56.943Z,1017.74
2022-11-26T03:37:37.488Z,1017.79
2022-11-26T03:38:17.954Z,1017.77
2022-11-26T03:38:58.439Z,1017.79
2022-11-26T03:39:38.942Z,1017.76
2022-11-26T03:40:19.453Z,1017.81
2022-11-26T03:41:00.013Z,1017.8
2022-11-26T03:41:40.476Z,1017.84
2022-11-26T03:42:20.950Z,1017.83
2022-11-26T03:43:01.460Z,1017.85
2022-11-26T03:43:41.942Z,1017.83
2022-11-26T03:44:22.445Z,1017.84
2022-11-26T03:45:02.943Z,1017.84
2022-11-26T03:45:43.514Z,1017.89
2022-11-26T03:46:23.940Z,1017.91
2022-11-26T03:47:04.452Z,1017.89
2022-11-26T03:47:44.939Z,1017.91
2022-11-26T03:48:25.428Z,1017.89
2022-11-26T03:49:05.948Z,1017.93
2022-11-26T03:49:46.375Z,1017.86
2022-11-26T03:50:26.866Z,1017.94
2022-11-26T03:51:07.387Z,1017.93
2022-11-26T03:51:47.945Z,1017.91
2022-11-26T03:52:28.487Z,1017.95
2022-11-26T03:53:09.025Z,1017.96
2022-11-26T03:53:49.479Z,1017.96
2022-11-26T03:54:29.952Z,1018
2022-11-26T03:55:10.463Z,1018.03
2022-11-26T03:55:50.976Z,1018.03
2022-11-26T03:56:31.465Z,1018.02
2022-11-26T03:57:11.964Z,1018.03
2022-11-26T03:57:52.454Z,1018.01
2022-11-26T03:58:32.966Z,1017.99
2022-11-26T03:59:13.434Z,1018.05
2022-11-26T03:59:53.949Z,1018.06
2022-11-26T04:00:34.457Z,1018.11
2022-11-26T04:01:55.579Z,1018.11
2022-11-26T04:02:36.055Z,1018.14
2022-11-26T04:03:16.514Z,1018.14
2022-11-26T04:03:56.953Z,1018.16
2022-11-26T04:04:37.887Z,1018.21
2022-11-26T04:05:17.927Z,1018.18
2022-11-26T04:05:58.435Z,1018.19
2022-11-26T04:06:38.924Z,1018.2
2022-11-26T04:09:52.520Z,1018.23
2022-11-26T04:10:33.006Z,1018.2
2022-11-26T04:11:13.429Z,1018.18
2022-11-26T04:11:53.913Z,1018.24
2022-11-26T04:12:34.470Z,1018.28
2022-11-26T04:13:14.975Z,1018.2
2022-11-26T04:13:55.393Z,1018.27
2022-11-26T04:14:36.057Z,1018.19
2022-11-26T04:15:16.347Z,1018.22
2022-11-26T04:15:56.881Z,1018.27
2022-11-26T04:16:37.441Z,1018.3
2022-11-26T04:17:17.874Z,1018.28
2022-11-26T04:17:58.418Z,1018.29
2022-11-26T04:18:38.899Z,1018.28
2022-11-26T04:19:19.406Z,1018.32
2022-11-26T04:19:59.910Z,1018.28
2022-11-26T04:20:40.396Z,1018.34
2022-11-26T04:21:20.883Z,1018.3
2022-11-26T04:22:01.391Z,1018.29
2022-11-26T04:22:41.911Z,1018.34
2022-11-26T04:23:22.420Z,1018.36
2022-11-26T04:24:02.863Z,1018.38
2022-11-26T04:24:43.337Z,1018.38
2022-11-26T04:25:23.883Z,1018.39
2022-11-26T04:26:04.374Z,1018.4
2022-11-26T04:26:44.796Z,1018.46
2022-11-26T04:27:25.284Z,1018.49
2022-11-26T04:28:05.848Z,1018.51
2022-11-26T04:28:46.308Z,1018.48
2022-11-26T04:29:26.786Z,1018.52
2022-11-26T04:30:07.271Z,1018.55
2022-11-26T04:30:47.757Z,1018.59
2022-11-26T04:31:28.268Z,1018.59
2022-11-26T04:32:08.780Z,1018.57
2022-11-26T04:32:49.233Z,1018.62
2022-11-26T04:33:29.707Z,1018.62
2022-11-26T04:34:10.183Z,1018.56
2022-11-26T04:34:50.679Z,1018.57
2022-11-26T04:35:31.179Z,1018.59
2022-11-26T04:36:11.695Z,1018.56
2022-11-26T04:36:52.199Z,1018.6
2022-11-26T04:37:32.655Z,1018.61
2022-11-26T04:38:13.185Z,1018.62
2022-11-26T04:38:53.670Z,1018.58
2022-11-26T04:39:34.172Z,1018.6
2022-11-26T04:40:14.660Z,1018.64
2022-11-26T04:40:55.192Z,1018.63
2022-11-26T04:41:35.661Z,1018.65
2022-11-26T04:42:16.169Z,1018.62
2022-11-26T04:42:56.624Z,1018.64
2022-11-26T04:44:17.607Z,1018.68
2022-11-26T04:44:58.129Z,1018.63
2022-11-26T04:45:38.643Z,1018.65
2022-11-26T04:46:19.159Z,1018.63
2022-11-26T04:46:59.588Z,1018.61
2022-11-26T04:47:42.862Z,1018.63
2022-11-26T04:48:20.602Z,1018.67
2022-11-26T04:49:01.040Z,1018.67
2022-11-26T04:49:41.543Z,1018.71
2022-11-26T04:50:22.028Z,1018.68
2022-11-26T04:51:43.041Z,1018.7
2022-11-26T04:52:23.507Z,1018.76
2022-11-26T04:53:03.990Z,1018.73
2022-11-26T04:53:44.483Z,1018.73
2022-11-26T04:54:24.993Z,1018.71
2022-11-26T04:55:05.481Z,1018.73
2022-11-26T04:55:45.995Z,1018.73
2022-11-26T04:56:26.534Z,1018.78
2022-11-26T04:57:06.953Z,1018.76
2022-11-26T04:57:47.426Z,1018.78
2022-11-26T04:58:27.939Z,1018.77
2022-11-26T04:59:08.412Z,1018.78
2022-11-26T04:59:48.921Z,1018.79
2022-11-26T05:00:29.389Z,1018.82
2022-11-26T05:01:09.949Z,1018.77
2022-11-26T05:01:50.404Z,1018.8
2022-11-26T05:02:30.946Z,1018.74
2022-11-26T05:03:11.396Z,1018.77
2022-11-26T05:03:51.894Z,1018.79
2022-11-26T05:04:32.388Z,1018.82
2022-11-26T05:05:12.849Z,1018.82
2022-11-26T05:05:53.336Z,1018.84
2022-11-26T05:06:33.809Z,1018.83
2022-11-26T05:07:15.078Z,1018.84
2022-11-26T05:07:55.601Z,1018.84
2022-11-26T05:08:36.090Z,1018.84
2022-11-26T05:09:16.556Z,1018.85
2022-11-26T05:09:57.072Z,1018.88
2022-11-26T05:10:37.610Z,1018.85
2022-11-26T05:11:24.706Z,1018.86
2022-11-26T05:12:05.273Z,1018.85
2022-11-26T05:12:45.684Z,1018.84
2022-11-26T05:13:26.195Z,1018.86
2022-11-26T05:14:06.715Z,1018.88
2022-11-26T05:14:47.231Z,1018.88
2022-11-26T05:15:27.717Z,1018.87
2022-11-26T05:16:08.222Z,1018.9
2022-11-26T05:16:48.796Z,1018.89
2022-11-26T05:17:29.222Z,1018.9
2022-11-26T05:18:09.698Z,1018.93
2022-11-26T05:18:50.191Z,1018.95
2022-11-26T05:19:30.644Z,1018.91
2022-11-26T05:20:11.142Z,1018.92
2022-11-26T05:20:51.659Z,1018.94
2022-11-26T05:21:32.147Z,1018.9
2022-11-26T05:22:12.649Z,1018.9
2022-11-26T05:22:53.137Z,1018.9
2022-11-26T05:23:33.643Z,1018.92
2022-11-26T05:24:14.106Z,1018.92
2022-11-26T05:24:54.591Z,1018.89
2022-11-26T05:25:35.064Z,1018.96
2022-11-26T05:26:15.550Z,1018.95
2022-11-26T05:26:57.252Z,1018.94
2022-11-26T05:27:36.543Z,1018.89
2022-11-26T05:28:17.030Z,1018.91
2022-11-26T05:28:57.493Z,1018.91
2022-11-26T05:29:38.084Z,1018.93
2022-11-26T05:30:18.554Z,1018.9
2022-11-26T05:30:59.039Z,1018.91
2022-11-26T05:31:39.577Z,1018.91
2022-11-26T05:32:20.001Z,1018.96
2022-11-26T05:33:00.507Z,1018.94
2022-11-26T05:33:40.987Z,1018.96
2022-11-26T05:34:21.493Z,1018.95
2022-11-26T05:35:01.991Z,1018.94
2022-11-26T05:35:42.448Z,1018.94
2022-11-26T05:36:22.958Z,1018.92
2022-11-26T05:37:03.458Z,1018.93
2022-11-26T05:37:43.925Z,1018.95
2022-11-26T05:38:24.430Z,1018.94
2022-11-26T05:39:04.903Z,1018.95
2022-11-26T05:39:45.376Z,1018.98
2022-11-26T05:40:25.855Z,1019.04
2022-11-26T05:41:06.353Z,1019.02
2022-11-26T05:41:46.879Z,1019.03
2022-11-26T05:42:27.405Z,1019.01
2022-11-26T05:43:07.936Z,1019.08
2022-11-26T05:43:48.368Z,1019.09
2022-11-26T05:44:28.844Z,1019.1
2022-11-26T05:45:09.376Z,1019.09
2022-11-26T05:45:49.895Z,1019.07
2022-11-26T05:46:30.373Z,1019.06
2022-11-26T05:47:10.877Z,1019.08
2022-11-26T05:47:51.357Z,1019.01
2022-11-26T05:48:31.870Z,1019.01
2022-11-26T05:49:12.377Z,1019.02
2022-11-26T05:49:52.863Z,1019.05
2022-11-26T05:50:33.339Z,1019.03
2022-11-26T05:51:13.847Z,1019.05
2022-11-26T05:51:54.339Z,1019.04
2022-11-26T05:52:34.837Z,1019.08
2022-11-26T05:53:15.333Z,1019.03
2022-11-26T06:32:33.740Z,1019.17
2022-11-26T06:33:14.178Z,1019.17
2022-11-26T06:33:54.689Z,1019.18
2022-11-26T06:34:35.181Z,1019.25
2022-11-26T06:35:15.618Z,1019.26
2022-11-26T06:35:56.148Z,1019.25
2022-11-26T06:36:36.593Z,1019.28
2022-11-26T06:37:17.050Z,1019.28
2022-11-26T06:37:57.549Z,1019.31
2022-11-26T06:38:38.011Z,1019.26
2022-11-26T06:39:18.489Z,1019.32
2022-11-26T06:39:58.968Z,1019.31
2022-11-26T06:40:39.483Z,1019.31
2022-11-26T06:41:19.950Z,1019.26
2022-11-26T06:42:00.446Z,1019.26
2022-11-26T06:42:40.956Z,1019.28
2022-11-26T06:43:21.439Z,1019.33
2022-11-26T06:44:01.940Z,1019.3
2022-11-26T06:44:42.416Z,1019.33
2022-11-26T06:45:22.974Z,1019.33
2022-11-26T06:46:03.542Z,1019.4
2022-11-26T06:47:24.509Z,1019.38
2022-11-26T06:48:05.029Z,1019.37
2022-11-26T06:48:45.504Z,1019.42
2022-11-26T06:49:26.010Z,1019.41
2022-11-26T06:50:10.650Z,1019.46
2022-11-26T06:50:46.983Z,1019.45
2022-11-26T06:51:27.461Z,1019.45
2022-11-26T06:52:07.966Z,1019.47
2022-11-26T06:52:48.440Z,1019.51
2022-11-26T06:53:28.921Z,1019.53
2022-11-26T06:54:09.450Z,1019.51
2022-11-26T06:54:49.973Z,1019.5
2022-11-26T06:55:30.458Z,1019.51
2022-11-26T06:56:14.959Z,1019.51
2022-11-26T06:56:51.472Z,1019.52
2022-11-26T06:57:31.950Z,1019.56
2022-11-26T06:58:12.463Z,1019.54
2022-11-26T06:58:52.973Z,1019.52
2022-11-26T06:59:33.460Z,1019.57
2022-11-26T07:00:13.944Z,1019.56
2022-11-26T07:00:54.510Z,1019.59
2022-11-26T07:01:35.037Z,1019.58
2022-11-26T07:02:15.533Z,1019.59
2022-11-26T07:02:56.033Z,1019.57
2022-11-26T07:03:36.524Z,1019.58
2022-11-26T07:04:17.008Z,1019.56
2022-11-26T07:04:57.500Z,1019.55
2022-11-26T07:05:38.021Z,1019.57
2022-11-26T07:06:18.557Z,1019.61
2022-11-26T07:06:59.045Z,1019.56
2022-11-26T07:07:39.679Z,1019.61
2022-11-26T07:08:20.051Z,1019.61
2022-11-26T07:09:00.591Z,1019.66
2022-11-26T07:09:41.042Z,1019.64
2022-11-26T07:10:21.564Z,1019.66
2022-11-26T07:11:02.050Z,1019.72
2022-11-26T07:11:42.597Z,1019.7
2022-11-26T07:12:23.104Z,1019.75
2022-11-26T07:13:03.598Z,1019.83
2022-11-26T07:13:44.070Z,1019.79
2022-11-26T07:14:24.581Z,1019.81
2022-11-26T07:15:05.078Z,1019.81
2022-11-26T07:15:45.638Z,1019.83
2022-11-26T07:16:26.150Z,1019.84
2022-11-26T07:17:06.568Z,1019.79
2022-11-26T07:17:47.082Z,1019.84
2022-11-26T07:18:28.208Z,1019.81
2022-11-26T07:19:08.725Z,1019.83
2022-11-26T07:19:49.205Z,1019.82
2022-11-26T07:20:29.779Z,1019.82
2022-11-26T07:21:10.202Z,1019.84
2022-11-26T07:21:50.744Z,1019.82
2022-11-26T07:22:31.225Z,1019.85
2022-11-26T07:23:11.815Z,1019.82
2022-11-26T07:23:52.369Z,1019.85
2022-11-26T07:24:32.848Z,1019.85
2022-11-26T07:25:13.338Z,1019.86
2022-11-26T07:25:53.849Z,1019.88
2022-11-26T07:26:34.371Z,1019.9
2022-11-26T07:27:14.855Z,1019.9
2022-11-26T07:27:55.345Z,1019.9
2022-11-26T07:29:16.408Z,1019.95
2022-11-26T07:29:56.920Z,1019.93
2022-11-26T07:30:37.465Z,1019.91
2022-11-26T07:31:18.011Z,1019.91
2022-11-26T07:31:58.459Z,1019.96
2022-11-26T07:32:38.924Z,1019.98
2022-11-26T07:33:19.438Z,1019.94
2022-11-26T07:33:59.934Z,1019.93
2022-11-26T07:34:40.772Z,1019.98
2022-11-26T07:35:20.977Z,1019.96
2022-11-26T07:36:01.468Z,1019.93
2022-11-26T07:36:42.059Z,1019.98
2022-11-26T07:39:41.587Z,1019.93
2022-11-26T07:40:22.084Z,1019.91
2022-11-26T07:41:02.530Z,1019.89
2022-11-26T07:41:43.028Z,1019.92
2022-11-26T07:42:23.461Z,1019.94
2022-11-26T07:43:03.967Z,1019.93
2022-11-26T07:43:44.432Z,1019.95
2022-11-26T07:44:24.941Z,1019.91
2022-11-26T07:45:45.932Z,1019.97
2022-11-26T07:46:26.455Z,1019.95
2022-11-26T07:47:06.937Z,1019.98
2022-11-26T07:47:47.433Z,1019.99
2022-11-26T07:48:27.899Z,1020
2022-11-26T07:49:08.404Z,1019.97
2022-11-26T07:49:49.006Z,1019.98
2022-11-26T07:50:29.413Z,1019.96
2022-11-26T07:51:09.929Z,1020
2022-11-26T07:51:50.448Z,1019.95
2022-11-26T07:52:30.978Z,1019.99
2022-11-26T07:53:11.440Z,1019.98
2022-11-26T07:53:51.918Z,1020.03
2022-11-26T07:54:32.409Z,1020.01
2022-11-26T07:55:12.967Z,1020.07
2022-11-26T07:55:53.432Z,1020.02
2022-11-26T07:56:33.951Z,1020.04
2022-11-26T07:57:14.483Z,1020.06
2022-11-26T07:57:54.929Z,1020.05
2022-11-26T07:58:35.475Z,1020.04
2022-11-26T07:59:15.940Z,1020.02
2022-11-26T07:59:56.440Z,1020.05
2022-11-26T08:00:36.917Z,1020.05
2022-11-26T08:01:17.452Z,1020.03
2022-11-26T08:01:58.048Z,1020.06
2022-11-26T08:02:38.463Z,1020.01
2022-11-26T08:03:18.946Z,1020
2022-11-26T08:03:59.455Z,1020.03
2022-11-26T08:04:40.052Z,1019.97
2022-11-26T08:05:20.472Z,1020.02
2022-11-26T08:06:00.964Z,1020
2022-11-26T08:06:41.518Z,1020.01
2022-11-26T08:07:27.635Z,1020.02
2022-11-26T08:08:02.475Z,1020.03
2022-11-26T08:08:43.055Z,1020.03
2022-11-26T08:10:03.946Z,1020.01
2022-11-26T08:10:44.428Z,1020.01
2022-11-26T08:11:24.925Z,1020
2022-11-26T08:12:06.025Z,1020.04
2022-11-26T08:12:46.562Z,1020.04
2022-11-26T08:13:27.042Z,1020.07
2022-11-26T08:14:07.520Z,1020.08
2022-11-26T08:14:48.055Z,1020.05
2022-11-26T08:15:28.563Z,1020.06
2022-11-26T08:16:09.118Z,1020.06
2022-11-26T08:16:49.626Z,1020.08
2022-11-26T08:17:30.219Z,1020.01
2022-11-26T08:18:10.730Z,1020.04
2022-11-26T08:18:51.216Z,1020.03
2022-11-26T08:19:31.699Z,1020.01
2022-11-26T08:20:12.196Z,1020.05
2022-11-26T08:20:52.702Z,1020.04
2022-11-26T08:21:33.203Z,1020
2022-11-26T08:22:14.661Z,1020
2022-11-26T08:22:55.159Z,1020.08
2022-11-26T08:23:35.633Z,1020.09
2022-11-26T08:24:16.178Z,1020.08
2022-11-26T08:24:56.673Z,1020.09
2022-11-26T08:25:45.127Z,1020.08
2022-11-26T08:26:24.221Z,1020.09
2022-11-26T08:26:58.164Z,1020.09
2022-11-26T08:27:38.643Z,1020.09
2022-11-26T08:28:19.139Z,1020.09
2022-11-26T08:28:59.680Z,1020.09
2022-11-26T08:29:40.165Z,1020.08
2022-11-26T08:30:20.661Z,1020.11
2022-11-26T08:31:01.216Z,1020.09
2022-11-26T08:31:45.475Z,1020.11
2022-11-26T08:32:22.172Z,1020.13
2022-11-26T08:33:02.629Z,1020.18
2022-11-26T08:33:43.118Z,1020.15
2022-11-26T08:34:23.595Z,1020.21
2022-11-26T08:35:04.078Z,1020.21
2022-11-26T08:36:05.836Z,1020.24
2022-11-26T08:36:25.130Z,1020.26
2022-11-26T08:37:05.596Z,1020.24
2022-11-26T08:37:46.158Z,1020.22
2022-11-26T08:38:27.186Z,1020.24
2022-11-26T08:39:07.124Z,1020.25
2022-11-26T08:39:47.594Z,1020.21
2022-11-26T08:40:28.074Z,1020.22
2022-11-26T08:41:08.568Z,1020.26
2022-11-26T08:41:52.322Z,1020.19
2022-11-26T08:42:29.543Z,1020.15
2022-11-26T08:43:10.042Z,1020.22
2022-11-26T08:44:07.681Z,1020.17
2022-11-26T08:44:31.055Z,1020.18
2022-11-26T08:45:11.523Z,1020.18
2022-11-26T08:45:52.082Z,1020.18
2022-11-26T08:46:32.571Z,1020.17
2022-11-26T08:47:13.001Z,1020.14
2022-11-26T08:47:53.495Z,1020.16
2022-11-26T08:48:33.987Z,1020.17
2022-11-26T08:49:14.493Z,1020.18
2022-11-26T08:49:54.949Z,1020.16
2022-11-26T08:50:35.472Z,1020.22
2022-11-26T08:51:15.972Z,1020.18
2022-11-26T08:51:56.475Z,1020.19
2022-11-26T08:52:36.931Z,1020.18
2022-11-26T08:53:17.434Z,1020.22
2022-11-26T08:54:42.118Z,1020.22
2022-11-26T08:55:23.663Z,1020.23
2022-11-26T08:56:00.542Z,1020.26
2022-11-26T08:56:39.959Z,1020.27
2022-11-26T08:57:20.456Z,1020.22
2022-11-26T08:58:00.947Z,1020.24
2022-11-26T08:58:41.437Z,1020.29
2022-11-26T08:59:21.931Z,1020.3
2022-11-26T09:00:02.444Z,1020.35
2022-11-26T09:00:42.941Z,1020.3
2022-11-26T09:01:23.517Z,1020.33
2022-11-26T09:02:03.887Z,1020.34
2022-11-26T09:02:44.443Z,1020.36
2022-11-26T09:03:24.899Z,1020.36
2022-11-26T09:04:45.901Z,1020.37
2022-11-26T09:05:26.389Z,1020.42
2022-11-26T09:06:06.897Z,1020.37
2022-11-26T09:06:47.505Z,1020.38
2022-11-26T09:07:28.037Z,1020.37
2022-11-26T09:08:08.505Z,1020.4
2022-11-26T09:08:49.015Z,1020.42
2022-11-26T09:09:29.528Z,1020.42
2022-11-26T09:10:10.073Z,1020.38
2022-11-26T09:10:50.620Z,1020.42
2022-11-26T09:11:31.074Z,1020.42
2022-11-26T09:12:11.581Z,1020.37
2022-11-26T09:12:52.096Z,1020.42
2022-11-26T09:13:32.566Z,1020.43
2022-11-26T09:14:13.092Z,1020.43
2022-11-26T09:14:53.684Z,1020.41
2022-11-26T09:15:34.173Z,1020.44
2022-11-26T09:16:14.746Z,1020.44
2022-11-26T09:17:35.664Z,1020.45
2022-11-26T09:18:16.164Z,1020.47
2022-11-26T09:18:56.637Z,1020.45
2022-11-26T09:19:37.187Z,1020.48
2022-11-26T09:20:17.667Z,1020.44
2022-11-26T09:20:58.157Z,1020.45
2022-11-26T09:21:38.628Z,1020.47
2022-11-26T09:22:19.119Z,1020.43
2022-11-26T09:22:59.707Z,1020.42
2022-11-26T09:23:40.158Z,1020.39
2022-11-26T09:25:01.167Z,1020.43
2022-11-26T09:25:41.701Z,1020.46
2022-11-26T09:26:22.189Z,1020.47
2022-11-26T09:27:07.458Z,1020.53
2022-11-26T09:27:43.186Z,1020.52
2022-11-26T09:28:23.713Z,1020.55
2022-11-26T09:29:04.231Z,1020.51
2022-11-26T09:29:44.732Z,1020.53
2022-11-26T09:30:25.199Z,1020.58
2022-11-26T09:31:05.704Z,1020.58
2022-11-26T09:32:07.816Z,1020.57
2022-11-26T09:32:31.058Z,1020.59
2022-11-26T09:33:07.329Z,1020.6
2022-11-26T09:33:48.060Z,1020.61
2022-11-26T09:34:29.199Z,1020.58
2022-11-26T09:35:09.713Z,1020.57
2022-11-26T09:35:50.210Z,1020.54